sensor_id;sensor_type;location;lat;lon;timestamp;pressure;altitude;pressure_sealevel;temperature;humidity
68179;BME280;69812;42.632;23.440;2023-10-09T00:00:34;95566.41;;;17.10;55.26
68179;BME280;69812;42.632;23.440;2023-10-09T00:03:06;95574.69;;;17.05;55.48
68179;BME280;69812;42.632;23.440;2023-10-09T00:05:32;95552.50;;;16.94;55.77
68179;BME280;69812;42.632;23.440;2023-10-09T00:08:14;95563.19;;;17.08;55.63
68179;BME280;69812;42.632;23.440;2023-10-09T00:10:59;95562.84;;;16.94;55.70
68179;BME280;69812;42.632;23.440;2023-10-09T00:13:39;95564.16;;;16.98;55.81
68179;BME280;69812;42.632;23.440;2023-10-09T00:16:14;95573.88;;;16.88;55.75
68179;BME280;69812;42.632;23.440;2023-10-09T00:18:41;95555.41;;;16.83;55.87
68179;BME280;69812;42.632;23.440;2023-10-09T00:21:18;95560.41;;;16.76;56.13
68179;BME280;69812;42.632;23.440;2023-10-09T00:23:48;95569.13;;;16.75;56.22
68179;BME280;69812;42.632;23.440;2023-10-09T00:26:25;95557.78;;;16.68;56.52
68179;BME280;69812;42.632;23.440;2023-10-09T00:28:51;95557.28;;;16.64;56.30
68179;BME280;69812;42.632;23.440;2023-10-09T00:31:19;95577.22;;;16.72;56.15
68179;BME280;69812;42.632;23.440;2023-10-09T00:33:59;95575.75;;;16.61;56.35
68179;BME280;69812;42.632;23.440;2023-10-09T00:36:30;95555.97;;;16.44;56.62
68179;BME280;69812;42.632;23.440;2023-10-09T00:38:57;95566.34;;;16.44;56.86
68179;BME280;69812;42.632;23.440;2023-10-09T00:41:26;95573.81;;;16.55;56.15
68179;BME280;69812;42.632;23.440;2023-10-09T00:43:54;95577.03;;;16.49;56.81
68179;BME280;69812;42.632;23.440;2023-10-09T00:46:24;95567.09;;;16.28;56.91
68179;BME280;69812;42.632;23.440;2023-10-09T00:48:54;95586.69;;;16.31;56.76
68179;BME280;69812;42.632;23.440;2023-10-09T00:51:20;95585.69;;;16.23;57.14
68179;BME280;69812;42.632;23.440;2023-10-09T00:53:52;95574.84;;;16.20;57.06
68179;BME280;69812;42.632;23.440;2023-10-09T00:56:20;95584.09;;;16.22;57.33
68179;BME280;69812;42.632;23.440;2023-10-09T00:58:58;95587.44;;;16.15;57.43
68179;BME280;69812;42.632;23.440;2023-10-09T01:01:46;95590.16;;;16.05;57.68
68179;BME280;69812;42.632;23.440;2023-10-09T01:04:29;95586.50;;;15.81;58.01
68179;BME280;69812;42.632;23.440;2023-10-09T01:07:02;95594.59;;;15.87;58.31
68179;BME280;69812;42.632;23.440;2023-10-09T01:09:37;95585.03;;;15.79;58.12
68179;BME280;69812;42.632;23.440;2023-10-09T01:12:10;95590.44;;;15.68;58.19
68179;BME280;69812;42.632;23.440;2023-10-09T01:14:46;95605.22;;;15.75;57.74
68179;BME280;69812;42.632;23.440;2023-10-09T01:17:21;95634.41;;;15.68;57.57
68179;BME280;69812;42.632;23.440;2023-10-09T01:20:00;95636.72;;;15.71;57.46
68179;BME280;69812;42.632;23.440;2023-10-09T01:22:29;95613.19;;;15.56;57.32
68179;BME280;69812;42.632;23.440;2023-10-09T01:24:54;95614.63;;;15.58;57.69
68179;BME280;69812;42.632;23.440;2023-10-09T01:27:20;95633.13;;;15.64;57.19
68179;BME280;69812;42.632;23.440;2023-10-09T01:29:49;95645.44;;;15.70;57.36
68179;BME280;69812;42.632;23.440;2023-10-09T01:32:17;95631.06;;;15.49;57.14
68179;BME280;69812;42.632;23.440;2023-10-09T01:34:44;95641.28;;;15.51;57.09
68179;BME280;69812;42.632;23.440;2023-10-09T01:37:17;95632.84;;;15.49;57.10
68179;BME280;69812;42.632;23.440;2023-10-09T01:39:50;95645.13;;;15.47;57.26
68179;BME280;69812;42.632;23.440;2023-10-09T01:42:16;95649.88;;;15.33;56.90
68179;BME280;69812;42.632;23.440;2023-10-09T01:45:01;95620.88;;;15.04;57.21
68179;BME280;69812;42.632;23.440;2023-10-09T01:47:47;95648.34;;;15.23;57.52
68179;BME280;69812;42.632;23.440;2023-10-09T01:50:20;95643.63;;;15.18;57.99
68179;BME280;69812;42.632;23.440;2023-10-09T01:52:50;95677.97;;;15.10;57.82
68179;BME280;69812;42.632;23.440;2023-10-09T01:55:16;95703.00;;;15.10;58.10
68179;BME280;69812;42.632;23.440;2023-10-09T01:57:58;95680.09;;;14.97;57.89
68179;BME280;69812;42.632;23.440;2023-10-09T02:00:44;95678.69;;;15.03;57.82
68179;BME280;69812;42.632;23.440;2023-10-09T02:03:14;95696.72;;;14.94;58.20
68179;BME280;69812;42.632;23.440;2023-10-09T02:05:48;95663.75;;;14.78;57.95
68179;BME280;69812;42.632;23.440;2023-10-09T02:08:15;95663.25;;;14.75;58.07
68179;BME280;69812;42.632;23.440;2023-10-09T02:10:47;95667.78;;;14.63;58.12
68179;BME280;69812;42.632;23.440;2023-10-09T02:13:13;95674.22;;;14.59;57.78
68179;BME280;69812;42.632;23.440;2023-10-09T02:15:56;95699.56;;;14.73;57.99
68179;BME280;69812;42.632;23.440;2023-10-09T02:18:23;95693.25;;;14.58;58.52
68179;BME280;69812;42.632;23.440;2023-10-09T02:20:52;95701.00;;;14.58;58.62
68179;BME280;69812;42.632;23.440;2023-10-09T02:23:41;95692.81;;;14.53;58.11
68179;BME280;69812;42.632;23.440;2023-10-09T02:26:13;95697.09;;;14.44;58.32
68179;BME280;69812;42.632;23.440;2023-10-09T02:28:56;95701.06;;;14.38;58.20
68179;BME280;69812;42.632;23.440;2023-10-09T02:31:29;95716.50;;;14.21;59.03
68179;BME280;69812;42.632;23.440;2023-10-09T02:34:08;95704.03;;;14.06;58.94
68179;BME280;69812;42.632;23.440;2023-10-09T02:36:35;95726.03;;;14.10;59.43
68179;BME280;69812;42.632;23.440;2023-10-09T02:39:07;95737.88;;;14.03;59.70
68179;BME280;69812;42.632;23.440;2023-10-09T02:41:46;95736.66;;;13.97;59.30
68179;BME280;69812;42.632;23.440;2023-10-09T02:44:14;95741.28;;;14.04;59.46
68179;BME280;69812;42.632;23.440;2023-10-09T02:46:41;95723.50;;;13.81;59.36
68179;BME280;69812;42.632;23.440;2023-10-09T02:49:06;95734.13;;;13.78;59.99
68179;BME280;69812;42.632;23.440;2023-10-09T02:51:34;95749.03;;;13.84;60.41
68179;BME280;69812;42.632;23.440;2023-10-09T02:54:07;95748.09;;;13.75;60.14
68179;BME280;69812;42.632;23.440;2023-10-09T02:56:51;95733.59;;;13.65;60.73
68179;BME280;69812;42.632;23.440;2023-10-09T02:59:43;95752.75;;;13.62;60.68
68179;BME280;69812;42.632;23.440;2023-10-09T03:02:10;95747.44;;;13.54;60.69
68179;BME280;69812;42.632;23.440;2023-10-09T03:04:36;95743.78;;;13.47;60.39
68179;BME280;69812;42.632;23.440;2023-10-09T03:07:04;95755.31;;;13.43;60.61
68179;BME280;69812;42.632;23.440;2023-10-09T03:09:29;95752.59;;;13.44;60.75
68179;BME280;69812;42.632;23.440;2023-10-09T03:12:03;95745.94;;;13.32;60.60
68179;BME280;69812;42.632;23.440;2023-10-09T03:14:35;95758.56;;;13.35;60.92
68179;BME280;69812;42.632;23.440;2023-10-09T03:17:04;95740.63;;;13.24;61.03
68179;BME280;69812;42.632;23.440;2023-10-09T03:19:31;95754.19;;;13.26;60.93
68179;BME280;69812;42.632;23.440;2023-10-09T03:22:05;95748.59;;;13.11;60.92
68179;BME280;69812;42.632;23.440;2023-10-09T03:24:35;95763.13;;;13.22;60.76
68179;BME280;69812;42.632;23.440;2023-10-09T03:27:02;95758.91;;;13.01;61.53
68179;BME280;69812;42.632;23.440;2023-10-09T03:29:27;95748.72;;;13.00;61.14
68179;BME280;69812;42.632;23.440;2023-10-09T03:31:53;95767.66;;;12.79;61.92
68179;BME280;69812;42.632;23.440;2023-10-09T03:34:21;95767.69;;;12.89;61.41
68179;BME280;69812;42.632;23.440;2023-10-09T03:36:46;95768.09;;;12.84;61.18
68179;BME280;69812;42.632;23.440;2023-10-09T03:39:13;95770.09;;;12.81;61.45
68179;BME280;69812;42.632;23.440;2023-10-09T03:41:57;95770.72;;;12.63;62.14
68179;BME280;69812;42.632;23.440;2023-10-09T03:44:26;95780.84;;;12.55;62.60
68179;BME280;69812;42.632;23.440;2023-10-09T03:46:54;95765.03;;;12.29;62.55
68179;BME280;69812;42.632;23.440;2023-10-09T03:49:20;95791.16;;;12.55;62.37
68179;BME280;69812;42.632;23.440;2023-10-09T03:51:51;95788.94;;;12.41;62.28
68179;BME280;69812;42.632;23.440;2023-10-09T03:54:19;95804.66;;;12.17;63.00
68179;BME280;69812;42.632;23.440;2023-10-09T03:56:48;95795.56;;;12.12;63.35
68179;BME280;69812;42.632;23.440;2023-10-09T03:59:20;95807.09;;;12.18;62.76
68179;BME280;69812;42.632;23.440;2023-10-09T04:01:49;95789.66;;;12.01;62.95
68179;BME280;69812;42.632;23.440;2023-10-09T04:04:18;95791.84;;;11.84;63.16
68179;BME280;69812;42.632;23.440;2023-10-09T04:06:48;95794.91;;;11.78;63.84
68179;BME280;69812;42.632;23.440;2023-10-09T04:09:13;95810.94;;;11.70;64.17
68179;BME280;69812;42.632;23.440;2023-10-09T04:11:45;95816.97;;;11.81;63.88
68179;BME280;69812;42.632;23.440;2023-10-09T04:14:22;95813.19;;;11.64;63.57
68179;BME280;69812;42.632;23.440;2023-10-09T04:17:00;95819.66;;;11.58;63.57
68179;BME280;69812;42.632;23.440;2023-10-09T04:19:29;95803.44;;;11.46;63.58
68179;BME280;69812;42.632;23.440;2023-10-09T04:22:06;95808.25;;;11.40;64.37
68179;BME280;69812;42.632;23.440;2023-10-09T04:24:50;95781.56;;;11.20;64.15
68179;BME280;69812;42.632;23.440;2023-10-09T04:27:16;95808.72;;;11.34;64.43
68179;BME280;69812;42.632;23.440;2023-10-09T04:29:42;95806.16;;;11.34;63.91
68179;BME280;69812;42.632;23.440;2023-10-09T04:32:12;95795.47;;;11.17;64.18
68179;BME280;69812;42.632;23.440;2023-10-09T04:34:42;95803.19;;;11.17;63.72
68179;BME280;69812;42.632;23.440;2023-10-09T04:37:14;95825.56;;;11.26;63.50
68179;BME280;69812;42.632;23.440;2023-10-09T04:39:49;95811.22;;;11.24;62.69
68179;BME280;69812;42.632;23.440;2023-10-09T04:42:36;95798.13;;;11.27;61.86
68179;BME280;69812;42.632;23.440;2023-10-09T04:45:05;95827.06;;;11.29;61.72
68179;BME280;69812;42.632;23.440;2023-10-09T04:47:35;95826.13;;;11.41;61.01
68179;BME280;69812;42.632;23.440;2023-10-09T04:50:05;95802.56;;;11.25;60.76
68179;BME280;69812;42.632;23.440;2023-10-09T04:52:40;95813.81;;;11.56;59.70
68179;BME280;69812;42.632;23.440;2023-10-09T04:55:06;95804.75;;;11.41;59.29
68179;BME280;69812;42.632;23.440;2023-10-09T04:57:46;95821.00;;;11.62;59.25
68179;BME280;69812;42.632;23.440;2023-10-09T05:00:13;95812.97;;;11.88;58.18
68179;BME280;69812;42.632;23.440;2023-10-09T05:03:00;95818.56;;;11.61;57.92
68179;BME280;69812;42.632;23.440;2023-10-09T05:05:37;95836.97;;;11.77;57.59
68179;BME280;69812;42.632;23.440;2023-10-09T05:08:16;95833.34;;;11.80;57.49
68179;BME280;69812;42.632;23.440;2023-10-09T05:10:49;95827.31;;;11.69;56.75
68179;BME280;69812;42.632;23.440;2023-10-09T05:16:21;95828.41;;;11.88;56.36
68179;BME280;69812;42.632;23.440;2023-10-09T05:18:48;95820.22;;;12.36;54.51
68179;BME280;69812;42.632;23.440;2023-10-09T05:21:40;95842.44;;;13.29;51.54
68179;BME280;69812;42.632;23.440;2023-10-09T05:24:09;95822.91;;;13.95;48.59
68179;BME280;69812;42.632;23.440;2023-10-09T05:26:47;95850.19;;;14.17;47.65
68179;BME280;69812;42.632;23.440;2023-10-09T05:32:01;95853.53;;;14.94;46.21
68179;BME280;69812;42.632;23.440;2023-10-09T05:34:39;95851.50;;;15.25;44.63
68179;BME280;69812;42.632;23.440;2023-10-09T05:37:24;95860.50;;;15.49;43.84
68179;BME280;69812;42.632;23.440;2023-10-09T05:40:02;95853.75;;;15.10;44.38
68179;BME280;69812;42.632;23.440;2023-10-09T05:42:35;95865.03;;;15.37;43.23
68179;BME280;69812;42.632;23.440;2023-10-09T05:45:11;95873.97;;;15.70;42.37
68179;BME280;69812;42.632;23.440;2023-10-09T05:47:49;95882.66;;;15.79;42.68
68179;BME280;69812;42.632;23.440;2023-10-09T05:50:25;95879.31;;;16.05;41.82
68179;BME280;69812;42.632;23.440;2023-10-09T05:52:51;95886.47;;;16.73;40.95
68179;BME280;69812;42.632;23.440;2023-10-09T05:55:17;95891.31;;;16.94;39.41
68179;BME280;69812;42.632;23.440;2023-10-09T05:58:01;95898.56;;;16.20;41.19
68179;BME280;69812;42.632;23.440;2023-10-09T06:00:45;95901.59;;;16.59;39.97
68179;BME280;69812;42.632;23.440;2023-10-09T06:03:29;95887.97;;;16.31;40.07
68179;BME280;69812;42.632;23.440;2023-10-09T06:06:14;95906.47;;;16.62;39.98
68179;BME280;69812;42.632;23.440;2023-10-09T06:09:02;95921.56;;;16.85;39.14
68179;BME280;69812;42.632;23.440;2023-10-09T06:12:00;95917.63;;;16.37;39.66
68179;BME280;69812;42.632;23.440;2023-10-09T06:14:44;95926.81;;;16.31;39.60
68179;BME280;69812;42.632;23.440;2023-10-09T06:17:23;95928.78;;;16.99;38.30
68179;BME280;69812;42.632;23.440;2023-10-09T06:19:49;95912.34;;;16.91;37.55
68179;BME280;69812;42.632;23.440;2023-10-09T06:22:17;95918.66;;;16.88;37.94
68179;BME280;69812;42.632;23.440;2023-10-09T06:25:01;95928.56;;;17.19;37.07
68179;BME280;69812;42.632;23.440;2023-10-09T06:27:34;95929.56;;;16.74;38.03
68179;BME280;69812;42.632;23.440;2023-10-09T06:30:00;95928.03;;;16.81;37.71
68179;BME280;69812;42.632;23.440;2023-10-09T06:32:43;95930.38;;;17.69;35.51
68179;BME280;69812;42.632;23.440;2023-10-09T06:35:45;95917.97;;;18.05;35.17
68179;BME280;69812;42.632;23.440;2023-10-09T06:38:21;95924.31;;;18.68;34.43
68179;BME280;69812;42.632;23.440;2023-10-09T06:40:58;95938.81;;;19.43;32.42
68179;BME280;69812;42.632;23.440;2023-10-09T06:43:47;95947.91;;;17.75;33.72
68179;BME280;69812;42.632;23.440;2023-10-09T06:46:18;95957.88;;;17.88;34.25
68179;BME280;69812;42.632;23.440;2023-10-09T06:48:52;95951.81;;;17.37;35.49
68179;BME280;69812;42.632;23.440;2023-10-09T06:51:25;95924.13;;;17.45;34.51
68179;BME280;69812;42.632;23.440;2023-10-09T06:53:53;95944.69;;;17.31;34.98
68179;BME280;69812;42.632;23.440;2023-10-09T06:56:22;95935.19;;;18.15;33.73
68179;BME280;69812;42.632;23.440;2023-10-09T06:59:08;95933.25;;;18.17;33.06
68179;BME280;69812;42.632;23.440;2023-10-09T07:01:49;95937.00;;;18.55;32.89
68179;BME280;69812;42.632;23.440;2023-10-09T07:04:36;95937.66;;;18.74;32.06
68179;BME280;69812;42.632;23.440;2023-10-09T07:07:01;95943.69;;;18.41;32.61
68179;BME280;69812;42.632;23.440;2023-10-09T07:09:27;95940.91;;;18.18;33.47
68179;BME280;69812;42.632;23.440;2023-10-09T07:12:08;95947.31;;;17.47;34.67
68179;BME280;69812;42.632;23.440;2023-10-09T07:14:53;95941.44;;;17.37;34.23
68179;BME280;69812;42.632;23.440;2023-10-09T07:17:21;95956.47;;;17.25;33.95
68179;BME280;69812;42.632;23.440;2023-10-09T07:19:59;95952.78;;;17.70;33.43
68179;BME280;69812;42.632;23.440;2023-10-09T07:22:44;95955.19;;;18.22;32.42
68179;BME280;69812;42.632;23.440;2023-10-09T07:25:21;95959.59;;;18.96;31.04
68179;BME280;69812;42.632;23.440;2023-10-09T07:28:05;95941.22;;;18.97;29.84
68179;BME280;69812;42.632;23.440;2023-10-09T07:30:43;95935.03;;;18.08;31.39
68179;BME280;69812;42.632;23.440;2023-10-09T07:33:09;95939.34;;;17.06;33.63
68179;BME280;69812;42.632;23.440;2023-10-09T07:35:40;95952.19;;;16.46;35.44
68179;BME280;69812;42.632;23.440;2023-10-09T07:38:05;95935.59;;;16.56;35.38
68179;BME280;69812;42.632;23.440;2023-10-09T07:40:38;95947.16;;;16.44;35.54
68179;BME280;69812;42.632;23.440;2023-10-09T07:43:23;95948.09;;;16.61;35.28
68179;BME280;69812;42.632;23.440;2023-10-09T07:45:55;95922.41;;;15.50;36.49
68179;BME280;69812;42.632;23.440;2023-10-09T07:48:24;95938.19;;;14.72;37.68
68179;BME280;69812;42.632;23.440;2023-10-09T07:51:12;95941.41;;;15.04;38.20
68179;BME280;69812;42.632;23.440;2023-10-09T07:53:37;95936.53;;;14.91;37.18
68179;BME280;69812;42.632;23.440;2023-10-09T07:56:09;95939.63;;;15.14;36.62
68179;BME280;69812;42.632;23.440;2023-10-09T07:58:35;95937.56;;;15.45;36.31
68179;BME280;69812;42.632;23.440;2023-10-09T08:01:20;95946.13;;;15.83;35.40
68179;BME280;69812;42.632;23.440;2023-10-09T08:04:00;95953.44;;;15.88;35.37
68179;BME280;69812;42.632;23.440;2023-10-09T08:06:38;95958.94;;;15.47;35.59
68179;BME280;69812;42.632;23.440;2023-10-09T08:09:08;95943.38;;;15.85;35.70
68179;BME280;69812;42.632;23.440;2023-10-09T08:11:41;95955.22;;;16.05;35.37
68179;BME280;69812;42.632;23.440;2023-10-09T08:14:13;95947.31;;;15.24;35.49
68179;BME280;69812;42.632;23.440;2023-10-09T08:16:57;95960.38;;;15.59;34.83
68179;BME280;69812;42.632;23.440;2023-10-09T08:19:45;95939.13;;;16.11;34.29
68179;BME280;69812;42.632;23.440;2023-10-09T08:22:25;95924.66;;;16.09;34.52
68179;BME280;69812;42.632;23.440;2023-10-09T08:24:51;95963.03;;;15.68;33.72
68179;BME280;69812;42.632;23.440;2023-10-09T08:27:23;95940.41;;;15.97;33.57
68179;BME280;69812;42.632;23.440;2023-10-09T08:30:03;95940.28;;;15.44;33.86
68179;BME280;69812;42.632;23.440;2023-10-09T08:32:46;95924.69;;;14.98;35.10
68179;BME280;69812;42.632;23.440;2023-10-09T08:35:31;95935.25;;;15.14;35.17
68179;BME280;69812;42.632;23.440;2023-10-09T08:38:01;95933.72;;;15.22;35.01
68179;BME280;69812;42.632;23.440;2023-10-09T08:40:42;95925.38;;;15.28;35.24
68179;BME280;69812;42.632;23.440;2023-10-09T08:43:18;95907.03;;;15.21;34.34
68179;BME280;69812;42.632;23.440;2023-10-09T08:45:48;95913.84;;;15.77;33.84
68179;BME280;69812;42.632;23.440;2023-10-09T08:48:17;95896.72;;;15.67;34.01
68179;BME280;69812;42.632;23.440;2023-10-09T08:50:46;95913.22;;;16.11;34.19
68179;BME280;69812;42.632;23.440;2023-10-09T08:53:15;95909.00;;;15.92;33.24
68179;BME280;69812;42.632;23.440;2023-10-09T08:55:41;95904.31;;;15.96;32.28
68179;BME280;69812;42.632;23.440;2023-10-09T08:58:07;95905.06;;;16.06;32.88
68179;BME280;69812;42.632;23.440;2023-10-09T09:00:42;95884.59;;;15.49;32.53
68179;BME280;69812;42.632;23.440;2023-10-09T09:03:11;95908.41;;;15.25;33.29
68179;BME280;69812;42.632;23.440;2023-10-09T09:05:37;95898.06;;;15.53;33.43
68179;BME280;69812;42.632;23.440;2023-10-09T09:08:03;95900.34;;;15.84;32.72
68179;BME280;69812;42.632;23.440;2023-10-09T09:10:29;95885.69;;;15.74;32.76
68179;BME280;69812;42.632;23.440;2023-10-09T09:13:02;95892.63;;;15.74;32.15
68179;BME280;69812;42.632;23.440;2023-10-09T09:15:29;95901.13;;;15.56;33.07
68179;BME280;69812;42.632;23.440;2023-10-09T09:18:06;95893.97;;;15.23;32.56
68179;BME280;69812;42.632;23.440;2023-10-09T09:20:32;95908.41;;;15.53;33.63
68179;BME280;69812;42.632;23.440;2023-10-09T09:23:10;95910.31;;;15.51;32.84
68179;BME280;69812;42.632;23.440;2023-10-09T09:25:45;95909.34;;;15.79;33.29
68179;BME280;69812;42.632;23.440;2023-10-09T09:28:12;95886.88;;;15.80;32.70
68179;BME280;69812;42.632;23.440;2023-10-09T09:30:38;95895.44;;;15.80;31.66
68179;BME280;69812;42.632;23.440;2023-10-09T09:33:25;95900.56;;;15.72;31.71
68179;BME280;69812;42.632;23.440;2023-10-09T09:36:06;95894.66;;;16.16;32.12
68179;BME280;69812;42.632;23.440;2023-10-09T09:38:35;95874.91;;;16.41;30.97
68179;BME280;69812;42.632;23.440;2023-10-09T09:41:14;95891.75;;;16.01;30.94
68179;BME280;69812;42.632;23.440;2023-10-09T09:43:57;95886.41;;;15.85;29.66
68179;BME280;69812;42.632;23.440;2023-10-09T09:46:31;95847.38;;;16.14;28.84
68179;BME280;69812;42.632;23.440;2023-10-09T09:49:03;95863.13;;;16.73;27.90
68179;BME280;69812;42.632;23.440;2023-10-09T09:51:31;95860.41;;;16.74;28.08
68179;BME280;69812;42.632;23.440;2023-10-09T09:53:57;95876.03;;;16.64;28.02
68179;BME280;69812;42.632;23.440;2023-10-09T09:56:25;95868.13;;;16.66;26.80
68179;BME280;69812;42.632;23.440;2023-10-09T09:58:51;95870.28;;;16.27;28.62
68179;BME280;69812;42.632;23.440;2023-10-09T10:01:24;95868.66;;;16.78;27.72
68179;BME280;69812;42.632;23.440;2023-10-09T10:04:12;95863.59;;;16.94;27.80
68179;BME280;69812;42.632;23.440;2023-10-09T10:06:45;95839.56;;;16.84;27.98
68179;BME280;69812;42.632;23.440;2023-10-09T10:09:51;95845.34;;;16.78;28.45
68179;BME280;69812;42.632;23.440;2023-10-09T10:16:02;95834.75;;;16.97;28.69
68179;BME280;69812;42.632;23.440;2023-10-09T10:21:17;95811.06;;;17.27;28.29
68179;BME280;69812;42.632;23.440;2023-10-09T10:23:44;95808.22;;;17.03;28.04
68179;BME280;69812;42.632;23.440;2023-10-09T10:26:24;95809.63;;;16.90;29.37
68179;BME280;69812;42.632;23.440;2023-10-09T10:29:18;95821.34;;;16.68;29.59
68179;BME280;69812;42.632;23.440;2023-10-09T10:32:02;95814.31;;;16.86;29.42
68179;BME280;69812;42.632;23.440;2023-10-09T10:37:21;95780.31;;;16.97;28.83
68179;BME280;69812;42.632;23.440;2023-10-09T10:39:53;95798.53;;;17.14;29.14
68179;BME280;69812;42.632;23.440;2023-10-09T10:42:24;95788.72;;;17.58;28.76
68179;BME280;69812;42.632;23.440;2023-10-09T10:45:02;95756.34;;;17.03;28.32
68179;BME280;69812;42.632;23.440;2023-10-09T10:47:40;95767.09;;;17.25;27.95
68179;BME280;69812;42.632;23.440;2023-10-09T10:50:07;95758.34;;;17.34;28.01
68179;BME280;69812;42.632;23.440;2023-10-09T10:52:53;95762.72;;;17.25;29.03
68179;BME280;69812;42.632;23.440;2023-10-09T10:55:22;95744.25;;;17.29;27.44
68179;BME280;69812;42.632;23.440;2023-10-09T10:57:51;95743.78;;;17.33;28.52
68179;BME280;69812;42.632;23.440;2023-10-09T11:00:28;95740.38;;;17.41;27.94
68179;BME280;69812;42.632;23.440;2023-10-09T11:03:19;95736.66;;;17.35;27.79
68179;BME280;69812;42.632;23.440;2023-10-09T11:05:49;95733.41;;;17.50;28.14
68179;BME280;69812;42.632;23.440;2023-10-09T11:08:24;95732.44;;;17.67;28.96
68179;BME280;69812;42.632;23.440;2023-10-09T11:10:52;95739.75;;;17.88;28.17
68179;BME280;69812;42.632;23.440;2023-10-09T11:13:26;95736.66;;;17.52;27.39
68179;BME280;69812;42.632;23.440;2023-10-09T11:16:17;95734.25;;;17.83;27.92
68179;BME280;69812;42.632;23.440;2023-10-09T11:19:22;95731.81;;;17.98;29.04
68179;BME280;69812;42.632;23.440;2023-10-09T11:21:54;95710.97;;;18.22;27.13
68179;BME280;69812;42.632;23.440;2023-10-09T11:24:29;95689.28;;;17.91;27.30
68179;BME280;69812;42.632;23.440;2023-10-09T11:27:04;95683.56;;;18.20;28.69
68179;BME280;69812;42.632;23.440;2023-10-09T11:29:32;95681.81;;;17.96;27.07
68179;BME280;69812;42.632;23.440;2023-10-09T11:32:20;95687.78;;;18.13;27.47
68179;BME280;69812;42.632;23.440;2023-10-09T11:34:50;95682.56;;;18.21;27.91
68179;BME280;69812;42.632;23.440;2023-10-09T11:37:23;95680.06;;;18.44;27.87
68179;BME280;69812;42.632;23.440;2023-10-09T11:39:54;95675.13;;;18.18;26.65
68179;BME280;69812;42.632;23.440;2023-10-09T11:42:25;95678.50;;;18.26;26.71
68179;BME280;69812;42.632;23.440;2023-10-09T11:45:34;95684.63;;;18.34;26.90
68179;BME280;69812;42.632;23.440;2023-10-09T11:48:17;95670.88;;;18.25;27.56
68179;BME280;69812;42.632;23.440;2023-10-09T11:50:59;95663.66;;;18.43;27.27
68179;BME280;69812;42.632;23.440;2023-10-09T11:53:45;95662.09;;;18.65;26.55
68179;BME280;69812;42.632;23.440;2023-10-09T11:56:14;95673.69;;;18.86;26.02
68179;BME280;69812;42.632;23.440;2023-10-09T11:58:42;95653.78;;;18.70;26.42
68179;BME280;69812;42.632;23.440;2023-10-09T12:01:14;95659.50;;;18.97;26.56
68179;BME280;69812;42.632;23.440;2023-10-09T12:03:51;95662.16;;;19.12;26.74
68179;BME280;69812;42.632;23.440;2023-10-09T12:06:18;95637.75;;;19.13;26.42
68179;BME280;69812;42.632;23.440;2023-10-09T12:08:57;95637.47;;;19.07;26.17
68179;BME280;69812;42.632;23.440;2023-10-09T12:11:26;95631.81;;;19.27;25.50
68179;BME280;69812;42.632;23.440;2023-10-09T12:13:56;95624.53;;;19.22;26.71
68179;BME280;69812;42.632;23.440;2023-10-09T12:16:25;95608.53;;;19.11;26.08
68179;BME280;69812;42.632;23.440;2023-10-09T12:18:56;95617.94;;;19.12;27.06
68179;BME280;69812;42.632;23.440;2023-10-09T12:21:25;95618.47;;;19.45;25.70
68179;BME280;69812;42.632;23.440;2023-10-09T12:23:53;95611.69;;;19.59;26.39
68179;BME280;69812;42.632;23.440;2023-10-09T12:26:22;95604.66;;;19.44;24.97
68179;BME280;69812;42.632;23.440;2023-10-09T12:28:48;95615.75;;;19.38;25.74
68179;BME280;69812;42.632;23.440;2023-10-09T12:31:16;95596.97;;;19.13;25.50
68179;BME280;69812;42.632;23.440;2023-10-09T12:33:45;95606.94;;;19.01;26.03
68179;BME280;69812;42.632;23.440;2023-10-09T12:36:12;95602.84;;;19.07;26.22
68179;BME280;69812;42.632;23.440;2023-10-09T12:38:45;95597.13;;;19.49;26.10
68179;BME280;69812;42.632;23.440;2023-10-09T12:41:15;95590.06;;;19.58;26.39
68179;BME280;69812;42.632;23.440;2023-10-09T12:43:54;95596.16;;;19.50;25.34
68179;BME280;69812;42.632;23.440;2023-10-09T12:46:20;95593.59;;;19.80;25.21
68179;BME280;69812;42.632;23.440;2023-10-09T12:48:49;95589.28;;;20.02;24.89
68179;BME280;69812;42.632;23.440;2023-10-09T12:51:19;95579.97;;;19.93;24.77
68179;BME280;69812;42.632;23.440;2023-10-09T12:53:51;95585.69;;;20.03;25.46
68179;BME280;69812;42.632;23.440;2023-10-09T12:56:23;95570.22;;;20.17;25.15
68179;BME280;69812;42.632;23.440;2023-10-09T12:59:00;95561.34;;;20.11;25.11
68179;BME280;69812;42.632;23.440;2023-10-09T13:01:27;95549.22;;;19.88;24.27
68179;BME280;69812;42.632;23.440;2023-10-09T13:04:09;95569.16;;;19.81;24.26
68179;BME280;69812;42.632;23.440;2023-10-09T13:06:38;95552.63;;;19.59;24.49
68179;BME280;69812;42.632;23.440;2023-10-09T13:09:10;95569.41;;;19.57;24.24
68179;BME280;69812;42.632;23.440;2023-10-09T13:11:35;95561.59;;;19.57;24.42
68179;BME280;69812;42.632;23.440;2023-10-09T13:14:02;95540.19;;;19.69;23.86
68179;BME280;69812;42.632;23.440;2023-10-09T13:16:39;95537.66;;;19.76;23.89
68179;BME280;69812;42.632;23.440;2023-10-09T13:19:06;95528.22;;;19.90;23.65
68179;BME280;69812;42.632;23.440;2023-10-09T13:21:37;95525.97;;;20.02;23.37
68179;BME280;69812;42.632;23.440;2023-10-09T13:24:06;95524.72;;;19.98;22.95
68179;BME280;69812;42.632;23.440;2023-10-09T13:26:38;95511.34;;;19.71;23.34
68179;BME280;69812;42.632;23.440;2023-10-09T13:29:03;95519.69;;;19.81;23.16
68179;BME280;69812;42.632;23.440;2023-10-09T13:31:29;95519.22;;;19.93;22.57
68179;BME280;69812;42.632;23.440;2023-10-09T13:33:59;95521.25;;;20.12;22.83
68179;BME280;69812;42.632;23.440;2023-10-09T13:36:26;95524.75;;;20.19;22.76
68179;BME280;69812;42.632;23.440;2023-10-09T13:38:54;95520.19;;;20.21;23.12